Terminal Aerodrome Forecast
Issued by NWS

Home | Current Version | Previous Version | Text Only | Print | Product List | Glossary On
Versions: 1 2 3 4 5 6 7 8 9 10 11 12 13 14 15
000
FTPA31 PHFO 220539
TAFHOG
TAF
PHOG 220539Z 2206/2306 06008KT P6SM VCSH SCT030 BKN050
     FM222000 06018G26KT P6SM VCSH SCT030 BKN050
     FM230400 06011KT P6SM VCSH SCT030 BKN050
      AMD LTD TO VIS AND WIND 2209/2216=

USA.gov is the U.S. government's official web portal to all federal, state and local government web resources and services.